createdAt,value
2023-08-29T00:02:00.363Z,1.30
2023-08-29T00:04:28.440Z,1.30
2023-08-29T00:06:56.524Z,1.47
2023-08-29T00:09:25.933Z,1.57
2023-08-29T00:11:54.041Z,1.23
2023-08-29T00:14:22.063Z,1.20
2023-08-29T00:16:50.117Z,1.40
2023-08-29T00:19:18.208Z,1.40
2023-08-29T00:21:46.290Z,1.30
2023-08-29T00:24:14.335Z,1.20
2023-08-29T00:26:44.114Z,1.27
2023-08-29T00:29:12.157Z,1.30
2023-08-29T00:31:40.304Z,1.50
2023-08-29T00:34:08.377Z,1.60
2023-08-29T00:36:36.446Z,1.50
2023-08-29T00:39:05.075Z,1.13
2023-08-29T00:41:33.527Z,1.40
2023-08-29T00:44:02.976Z,1.30
2023-08-29T00:46:31.141Z,1.20
2023-08-29T00:48:59.273Z,1.10
2023-08-29T00:51:27.356Z,1.10
2023-08-29T00:53:56.804Z,1.30
2023-08-29T00:56:25.879Z,1.30
2023-08-29T00:58:54.580Z,1.10
2023-08-29T01:01:24.098Z,1.20
2023-08-29T01:03:52.294Z,1.23
2023-08-29T01:06:20.451Z,1.47
2023-08-29T01:08:48.673Z,1.13
2023-08-29T01:11:28.511Z,1.50
2023-08-29T01:14:02.722Z,1.30
2023-08-29T01:16:40.127Z,1.40
2023-08-29T01:19:16.127Z,1.50
2023-08-29T01:21:56.482Z,1.40
2023-08-29T01:24:34.134Z,1.40
2023-08-29T01:27:05.199Z,1.70
2023-08-29T01:29:35.696Z,1.40
2023-08-29T01:32:06.495Z,1.43
2023-08-29T01:34:34.937Z,1.47
2023-08-29T01:37:03.054Z,1.47
2023-08-29T01:39:31.354Z,1.63
2023-08-29T01:41:59.610Z,1.70
2023-08-29T01:44:30.665Z,1.57
2023-08-29T01:46:58.765Z,1.40
2023-08-29T01:49:28.254Z,1.30
2023-08-29T01:51:56.968Z,1.43
2023-08-29T01:54:25.257Z,1.70
2023-08-29T01:56:56.589Z,1.50
2023-08-29T01:59:25.355Z,1.30
2023-08-29T02:01:55.206Z,1.50
2023-08-29T02:04:23.358Z,1.40
2023-08-29T02:06:51.989Z,1.50
2023-08-29T02:09:20.274Z,1.67
2023-08-29T02:11:48.396Z,1.27
2023-08-29T02:14:16.408Z,2.07
2023-08-29T02:16:44.507Z,1.40
2023-08-29T02:19:17.701Z,1.67
2023-08-29T02:21:45.797Z,1.43
2023-08-29T02:24:13.886Z,1.80
2023-08-29T02:26:41.945Z,1.40
2023-08-29T02:29:09.971Z,1.30
2023-08-29T02:31:39.104Z,1.67
2023-08-29T02:34:07.171Z,1.33
2023-08-29T02:36:36.624Z,1.40
2023-08-29T02:39:05.143Z,2.33
2023-08-29T02:41:33.153Z,1.67
2023-08-29T02:44:02.620Z,1.60
2023-08-29T02:46:30.786Z,1.67
2023-08-29T02:48:59.112Z,1.50
2023-08-29T02:51:27.928Z,2.10
2023-08-29T02:53:57.325Z,1.83
2023-08-29T02:56:25.489Z,1.90
2023-08-29T02:58:55.634Z,1.77
2023-08-29T03:01:23.966Z,1.93
2023-08-29T03:03:52.201Z,1.70
2023-08-29T03:06:20.529Z,1.90
2023-08-29T03:08:49.106Z,2.30
2023-08-29T03:11:18.721Z,1.77
2023-08-29T03:13:46.838Z,1.97
2023-08-29T03:16:19.819Z,1.73
2023-08-29T03:18:48.586Z,1.73
2023-08-29T03:21:16.781Z,1.90
2023-08-29T03:23:45.497Z,1.80
2023-08-29T03:26:14.063Z,2.17
2023-08-29T03:28:46.736Z,1.57
2023-08-29T03:31:18.267Z,1.70
2023-08-29T03:33:46.749Z,1.83
2023-08-29T03:36:15.396Z,1.80
2023-08-29T03:38:45.047Z,1.57
2023-08-29T03:41:13.602Z,2.03
2023-08-29T03:43:44.678Z,1.97
2023-08-29T03:46:12.778Z,1.60
2023-08-29T03:48:41.635Z,1.90
2023-08-29T03:51:09.860Z,2.03
2023-08-29T03:53:39.140Z,1.90
2023-08-29T03:56:11.095Z,1.80
2023-08-29T03:58:39.654Z,2.20
2023-08-29T04:01:12.700Z,1.63
2023-08-29T04:03:41.656Z,2.67
2023-08-29T04:06:10.092Z,2.30
2023-08-29T04:08:38.167Z,2.07
2023-08-29T04:11:06.504Z,2.00
2023-08-29T04:13:35.031Z,2.10
2023-08-29T04:16:04.477Z,2.00
2023-08-29T04:18:35.589Z,2.30
2023-08-29T04:21:03.702Z,2.40
2023-08-29T04:23:32.275Z,1.97
2023-08-29T04:26:01.537Z,2.20
2023-08-29T04:28:29.744Z,2.50
2023-08-29T04:30:58.069Z,2.20
2023-08-29T04:33:26.840Z,2.00
2023-08-29T04:35:56.392Z,2.30
2023-08-29T04:38:24.591Z,2.60
2023-08-29T04:40:55.138Z,2.10
2023-08-29T04:43:23.495Z,2.20
2023-08-29T04:45:53.608Z,2.27
2023-08-29T04:48:21.771Z,2.30
2023-08-29T04:50:49.834Z,2.60
2023-08-29T04:53:19.529Z,2.37
2023-08-29T04:55:47.608Z,2.50
2023-08-29T04:58:16.032Z,2.40
2023-08-29T05:00:44.486Z,2.20
2023-08-29T05:03:12.575Z,2.60
2023-08-29T05:05:47.940Z,2.40
2023-08-29T05:08:17.080Z,2.33
2023-08-29T05:10:48.020Z,2.60
2023-08-29T05:13:17.237Z,2.53
2023-08-29T05:15:46.575Z,3.60
2023-08-29T05:18:15.036Z,3.40
2023-08-29T05:20:43.148Z,3.07
2023-08-29T05:23:11.234Z,3.03
2023-08-29T05:25:40.732Z,3.10
2023-08-29T05:28:10.158Z,3.23
2023-08-29T05:30:38.290Z,3.20
2023-08-29T05:33:06.863Z,3.27
2023-08-29T05:35:34.952Z,3.00
2023-08-29T05:38:03.015Z,3.07
2023-08-29T05:40:33.264Z,3.27
2023-08-29T05:43:02.596Z,3.23
2023-08-29T05:45:32.241Z,2.60
2023-08-29T05:48:00.344Z,2.90
2023-08-29T05:50:28.637Z,2.67
2023-08-29T05:52:56.671Z,2.83
2023-08-29T05:55:24.915Z,2.67
2023-08-29T05:57:52.949Z,2.77
2023-08-29T06:00:21.721Z,2.90
2023-08-29T06:02:53.098Z,3.53
2023-08-29T06:05:21.339Z,2.80
2023-08-29T06:07:49.535Z,2.70
2023-08-29T06:10:17.827Z,3.00
2023-08-29T06:12:46.594Z,2.70
2023-08-29T06:15:14.865Z,2.83
2023-08-29T06:17:43.008Z,2.60
2023-08-29T06:20:13.149Z,3.00
2023-08-29T06:22:41.258Z,2.50
2023-08-29T06:25:11.697Z,3.17
2023-08-29T06:27:39.917Z,2.73
2023-08-29T06:30:13.950Z,2.63
2023-08-29T06:32:42.715Z,2.53
2023-08-29T06:35:12.579Z,3.20
2023-08-29T06:37:40.937Z,3.03
2023-08-29T06:40:11.257Z,3.10
2023-08-29T06:42:39.802Z,3.97
2023-08-29T06:45:09.621Z,3.17
2023-08-29T06:47:37.701Z,3.13
2023-08-29T06:50:06.357Z,3.00
2023-08-29T06:52:35.752Z,2.77
2023-08-29T06:55:04.789Z,3.00
2023-08-29T06:57:33.081Z,2.87
2023-08-29T07:00:01.182Z,2.63
2023-08-29T07:02:29.452Z,2.90
2023-08-29T07:04:57.796Z,2.77
2023-08-29T07:07:26.495Z,2.60
2023-08-29T07:09:55.891Z,2.67
2023-08-29T07:12:25.001Z,2.30
2023-08-29T07:14:53.115Z,2.57
2023-08-29T07:17:21.338Z,2.60
2023-08-29T07:19:50.344Z,2.77
2023-08-29T07:22:24.155Z,2.77
2023-08-29T07:24:53.670Z,2.57
2023-08-29T07:27:24.012Z,2.50
2023-08-29T07:29:52.298Z,2.67
2023-08-29T07:32:20.343Z,3.27
2023-08-29T07:34:49.023Z,2.73
2023-08-29T07:37:17.084Z,3.10
2023-08-29T07:39:45.263Z,3.23
2023-08-29T07:42:13.350Z,3.07
2023-08-29T07:44:42.955Z,2.90
2023-08-29T07:47:15.512Z,2.70
2023-08-29T07:49:44.287Z,2.80
2023-08-29T07:52:12.423Z,3.10
2023-08-29T07:54:40.716Z,3.77
2023-08-29T07:57:08.832Z,3.07
2023-08-29T07:59:36.880Z,3.80
2023-08-29T08:02:07.148Z,2.73
2023-08-29T08:04:35.722Z,2.97
2023-08-29T08:07:04.115Z,3.07
2023-08-29T08:09:32.603Z,3.57
2023-08-29T08:12:03.084Z,3.30
2023-08-29T08:14:31.242Z,3.60
2023-08-29T08:16:59.285Z,3.70
2023-08-29T08:19:28.759Z,3.63
2023-08-29T08:21:56.802Z,3.60
2023-08-29T08:24:25.072Z,3.83
2023-08-29T08:26:53.124Z,3.67
2023-08-29T08:29:21.180Z,3.63
2023-08-29T08:31:49.224Z,3.00
2023-08-29T08:34:17.356Z,3.70
2023-08-29T08:36:46.755Z,3.33
2023-08-29T08:39:14.813Z,3.37
2023-08-29T08:41:44.268Z,3.37
2023-08-29T08:44:16.972Z,2.80
2023-08-29T08:46:46.248Z,3.63
2023-08-29T08:49:15.209Z,3.20
2023-08-29T08:51:43.734Z,3.83
2023-08-29T08:54:14.699Z,3.33
2023-08-29T08:56:44.208Z,3.63
2023-08-29T08:59:12.284Z,3.63
2023-08-29T09:01:40.529Z,3.93
2023-08-29T09:04:09.138Z,3.50
2023-08-29T09:06:39.327Z,3.50
2023-08-29T09:09:20.147Z,3.53
2023-08-29T09:11:54.387Z,3.30
2023-08-29T09:14:22.781Z,3.67
2023-08-29T09:16:55.549Z,3.60
2023-08-29T09:19:24.523Z,3.47
2023-08-29T09:21:53.421Z,3.50
2023-08-29T09:24:33.998Z,4.03
2023-08-29T09:27:02.360Z,3.30
2023-08-29T09:29:32.973Z,3.43
2023-08-29T09:32:01.022Z,3.80
2023-08-29T09:34:30.836Z,3.77
2023-08-29T09:37:00.541Z,3.27
2023-08-29T09:39:30.326Z,3.60
2023-08-29T09:42:04.853Z,3.60
2023-08-29T09:44:39.559Z,3.60
2023-08-29T09:47:10.187Z,3.67
2023-08-29T09:49:44.770Z,3.43
2023-08-29T09:52:13.714Z,3.60
2023-08-29T09:54:46.981Z,3.60
2023-08-29T09:57:16.853Z,3.80
2023-08-29T09:59:46.544Z,3.67
2023-08-29T10:02:19.471Z,3.30
2023-08-29T10:04:53.019Z,3.80
2023-08-29T10:07:27.440Z,4.47
2023-08-29T10:09:58.532Z,4.00
2023-08-29T10:12:28.544Z,3.90
2023-08-29T10:14:58.991Z,4.40
2023-08-29T10:17:31.977Z,4.20
2023-08-29T10:20:01.726Z,4.60
2023-08-29T10:22:31.957Z,4.13
2023-08-29T10:25:04.188Z,4.63
2023-08-29T10:27:33.274Z,4.23
2023-08-29T10:30:02.646Z,4.13
2023-08-29T10:32:32.373Z,4.00
2023-08-29T10:35:01.715Z,4.17
2023-08-29T10:37:30.214Z,4.00
2023-08-29T10:40:15.185Z,4.00
2023-08-29T10:42:58.464Z,3.90
2023-08-29T10:45:47.970Z,4.07
2023-08-29T10:48:19.782Z,3.70
2023-08-29T10:50:50.056Z,4.50
2023-08-29T10:53:21.658Z,3.80
2023-08-29T10:56:05.138Z,3.73
2023-08-29T10:58:37.469Z,3.80
2023-08-29T11:01:06.896Z,4.23
2023-08-29T11:03:49.636Z,3.70
2023-08-29T11:06:19.019Z,3.37
2023-08-29T11:08:47.468Z,3.40
2023-08-29T11:11:19.881Z,3.30
2023-08-29T11:14:04.086Z,3.50
2023-08-29T11:16:36.230Z,3.43
2023-08-29T11:19:12.424Z,3.17
2023-08-29T11:21:41.598Z,3.30
2023-08-29T11:24:16.351Z,3.20
2023-08-29T11:26:48.546Z,3.30
2023-08-29T11:29:17.284Z,2.90
2023-08-29T11:31:47.429Z,2.60
2023-08-29T11:34:18.583Z,3.20
2023-08-29T11:36:49.495Z,2.80
2023-08-29T11:39:18.949Z,2.63
2023-08-29T11:42:05.021Z,3.30
2023-08-29T11:45:24.626Z,3.20
2023-08-29T11:47:26.338Z,2.90
2023-08-29T11:49:54.757Z,2.80
2023-08-29T11:52:23.599Z,2.23
2023-08-29T11:54:54.956Z,2.30
2023-08-29T11:57:25.347Z,2.40
2023-08-29T11:59:54.474Z,2.20
2023-08-29T12:02:23.350Z,1.93
2023-08-29T12:04:57.397Z,2.67
2023-08-29T12:07:32.632Z,1.73
2023-08-29T12:10:09.992Z,1.83
2023-08-29T12:12:40.719Z,2.00
2023-08-29T12:15:12.004Z,1.80
2023-08-29T12:17:42.598Z,1.80
2023-08-29T12:20:32.618Z,1.67
2023-08-29T12:23:00.755Z,2.27
2023-08-29T12:25:29.100Z,1.97
2023-08-29T12:27:59.122Z,2.50
2023-08-29T12:30:27.369Z,2.20
2023-08-29T12:32:55.552Z,2.33
2023-08-29T12:35:23.829Z,2.70
2023-08-29T12:37:51.936Z,2.00
2023-08-29T12:40:20.132Z,2.40
2023-08-29T12:42:50.456Z,2.20
2023-08-29T12:45:20.836Z,2.10
2023-08-29T12:47:50.408Z,2.40
2023-08-29T12:50:19.201Z,2.10
2023-08-29T12:52:47.368Z,2.13
2023-08-29T12:55:15.695Z,1.80
2023-08-29T12:57:45.058Z,2.00
2023-08-29T13:00:14.855Z,2.10
2023-08-29T13:02:44.504Z,1.80
2023-08-29T13:05:12.899Z,1.87
2023-08-29T13:07:41.734Z,1.83
2023-08-29T13:10:12.922Z,1.67
2023-08-29T13:12:41.115Z,1.70
2023-08-29T13:15:12.358Z,1.60
2023-08-29T13:17:41.132Z,1.70
2023-08-29T13:20:11.680Z,1.90
2023-08-29T13:22:39.855Z,2.00
2023-08-29T13:25:09.240Z,2.20
2023-08-29T13:27:37.329Z,2.20
2023-08-29T13:30:06.994Z,2.73
2023-08-29T13:32:36.139Z,2.40
2023-08-29T13:35:06.036Z,2.50
2023-08-29T13:37:35.528Z,2.20
2023-08-29T13:40:06.241Z,1.70
2023-08-29T13:42:34.269Z,1.50
2023-08-29T13:45:02.720Z,1.90
2023-08-29T13:47:30.834Z,2.00
2023-08-29T13:49:58.957Z,1.90
2023-08-29T13:52:27.360Z,1.70
2023-08-29T13:54:56.794Z,1.80
2023-08-29T13:57:24.883Z,1.80
2023-08-29T13:59:53.347Z,1.80
2023-08-29T14:02:21.640Z,1.60
2023-08-29T14:04:49.856Z,1.70
2023-08-29T14:07:18.004Z,1.50
2023-08-29T14:09:46.305Z,1.87
2023-08-29T14:12:15.749Z,1.83
2023-08-29T14:14:44.236Z,1.50
2023-08-29T14:17:12.284Z,1.50
2023-08-29T14:19:40.368Z,1.30
2023-08-29T14:22:08.874Z,1.60
2023-08-29T14:24:36.947Z,1.40
2023-08-29T14:27:05.350Z,1.20
2023-08-29T14:29:34.808Z,1.37
2023-08-29T14:32:02.883Z,1.17
2023-08-29T14:34:31.027Z,1.30
2023-08-29T14:37:00.720Z,1.10
2023-08-29T14:39:28.830Z,1.00
2023-08-29T14:41:56.934Z,1.00
2023-08-29T14:44:25.021Z,1.13
2023-08-29T14:46:54.415Z,1.10
2023-08-29T14:49:22.542Z,0.90
2023-08-29T14:51:50.684Z,1.00
2023-08-29T14:54:19.379Z,0.80
2023-08-29T14:56:47.678Z,1.07
2023-08-29T14:59:15.811Z,1.27
2023-08-29T15:01:44.081Z,0.80
2023-08-29T15:04:15.274Z,1.00
2023-08-29T15:06:43.797Z,1.20
2023-08-29T15:09:12.349Z,0.80
2023-08-29T15:11:40.711Z,1.07
2023-08-29T15:14:09.150Z,0.90
2023-08-29T15:16:37.243Z,1.10
2023-08-29T15:19:05.789Z,1.10
2023-08-29T15:21:35.198Z,0.90
2023-08-29T15:24:03.784Z,1.30
2023-08-29T15:26:32.005Z,1.03
2023-08-29T15:29:00.043Z,0.97
2023-08-29T15:31:28.133Z,1.20
2023-08-29T15:33:56.265Z,1.10
2023-08-29T15:36:26.329Z,0.80
2023-08-29T15:38:55.783Z,1.00
2023-08-29T15:41:24.553Z,1.33
2023-08-29T15:43:52.978Z,1.07
2023-08-29T15:46:21.465Z,0.77
2023-08-29T15:48:49.736Z,0.90
2023-08-29T15:51:17.934Z,0.90
2023-08-29T15:53:46.017Z,0.90
2023-08-29T15:56:15.492Z,0.97
2023-08-29T15:58:43.649Z,0.80
2023-08-29T16:01:12.311Z,1.00
2023-08-29T16:03:40.622Z,1.07
2023-08-29T16:06:08.810Z,1.00
2023-08-29T16:08:37.250Z,1.00
2023-08-29T16:11:05.405Z,1.10
2023-08-29T16:13:35.030Z,2.17
2023-08-29T16:16:03.290Z,0.90
2023-08-29T16:18:31.389Z,1.00
2023-08-29T16:20:59.679Z,1.30
2023-08-29T16:23:27.719Z,1.20
2023-08-29T16:25:55.786Z,1.13
2023-08-29T16:28:24.361Z,1.40
2023-08-29T16:30:54.056Z,0.97
2023-08-29T16:33:22.361Z,1.37
2023-08-29T16:35:50.438Z,1.20
2023-08-29T16:38:18.514Z,1.10
2023-08-29T16:40:46.629Z,1.30
2023-08-29T16:43:14.742Z,1.10
2023-08-29T16:45:42.906Z,1.10
2023-08-29T16:48:12.490Z,0.90
2023-08-29T16:50:40.928Z,1.10
2023-08-29T16:53:11.633Z,1.40
2023-08-29T16:55:40.973Z,1.17
2023-08-29T16:58:09.777Z,1.30
2023-08-29T17:00:38.960Z,1.27
2023-08-29T17:03:11.658Z,1.30
2023-08-29T17:05:41.554Z,1.20
2023-08-29T17:08:10.275Z,1.10
2023-08-29T17:10:38.813Z,1.47
2023-08-29T17:13:07.034Z,1.40
2023-08-29T17:15:35.091Z,1.20
2023-08-29T17:18:03.420Z,1.40
2023-08-29T17:20:31.858Z,1.13
2023-08-29T17:23:01.324Z,1.20
2023-08-29T17:25:30.810Z,1.33
2023-08-29T17:27:59.672Z,1.20
2023-08-29T17:30:28.202Z,1.30
2023-08-29T17:32:56.273Z,1.10
2023-08-29T17:35:24.404Z,1.13
2023-08-29T17:37:52.726Z,1.40
2023-08-29T17:40:22.614Z,1.90
2023-08-29T17:42:50.676Z,1.60
2023-08-29T17:45:18.989Z,1.40
2023-08-29T17:47:47.078Z,1.60
2023-08-29T17:50:15.693Z,1.70
2023-08-29T17:52:46.785Z,1.53
2023-08-29T17:55:15.094Z,1.57
2023-08-29T17:57:46.475Z,1.47
2023-08-29T18:00:15.762Z,1.37
2023-08-29T18:02:43.923Z,1.30
2023-08-29T18:05:12.254Z,1.23
2023-08-29T18:07:40.323Z,1.67
2023-08-29T18:10:12.618Z,1.50
2023-08-29T18:12:41.579Z,1.57
2023-08-29T18:15:12.775Z,1.80
2023-08-29T18:17:41.259Z,2.43
2023-08-29T18:20:10.218Z,1.77
2023-08-29T18:22:38.602Z,1.60
2023-08-29T18:25:07.865Z,1.90
2023-08-29T18:27:37.672Z,1.40
2023-08-29T18:30:07.464Z,1.80
2023-08-29T18:32:36.912Z,1.90
2023-08-29T18:35:05.733Z,2.07
2023-08-29T18:37:33.797Z,1.83
2023-08-29T18:40:03.503Z,1.60
2023-08-29T18:42:31.544Z,2.47
2023-08-29T18:45:02.025Z,1.87
2023-08-29T18:47:30.072Z,1.60
2023-08-29T18:49:59.630Z,1.40
2023-08-29T18:52:28.279Z,1.40
2023-08-29T18:54:57.716Z,1.50
2023-08-29T18:57:26.766Z,1.53
2023-08-29T18:59:55.020Z,1.30
2023-08-29T19:02:23.121Z,1.60
2023-08-29T19:04:51.467Z,1.63
2023-08-29T19:07:21.401Z,1.77
2023-08-29T19:09:49.491Z,1.30
2023-08-29T19:12:18.219Z,1.50
2023-08-29T19:14:47.363Z,2.20
2023-08-29T19:17:15.639Z,1.43
2023-08-29T19:19:43.716Z,1.40
2023-08-29T19:22:11.839Z,1.30
2023-08-29T19:24:41.946Z,1.50
2023-08-29T19:27:21.440Z,1.77
2023-08-29T19:29:52.439Z,1.50
2023-08-29T19:32:20.602Z,1.80
2023-08-29T19:34:48.701Z,1.90
2023-08-29T19:37:17.481Z,1.93
2023-08-29T19:39:47.197Z,1.60
2023-08-29T19:42:15.346Z,1.43
2023-08-29T19:44:44.090Z,1.70
2023-08-29T19:47:12.179Z,1.30
2023-08-29T19:49:47.381Z,1.47
2023-08-29T19:52:16.065Z,1.30
2023-08-29T19:54:45.808Z,1.60
2023-08-29T19:57:15.470Z,1.47
2023-08-29T19:59:43.589Z,2.30
2023-08-29T20:02:11.673Z,1.80
2023-08-29T20:04:40.883Z,1.53
2023-08-29T20:07:09.195Z,1.57
2023-08-29T20:09:37.368Z,1.23
2023-08-29T20:12:09.068Z,1.33
2023-08-29T20:14:37.141Z,1.37
2023-08-29T20:17:06.651Z,1.50
2023-08-29T20:19:34.982Z,1.30
2023-08-29T20:22:03.753Z,1.20
2023-08-29T20:24:31.825Z,1.33
2023-08-29T20:26:59.863Z,1.30
2023-08-29T20:29:29.248Z,1.30
2023-08-29T20:31:57.343Z,1.57
2023-08-29T20:34:25.423Z,1.37
2023-08-29T20:36:53.574Z,1.43
2023-08-29T20:39:23.119Z,1.37
2023-08-29T20:41:51.291Z,1.40
2023-08-29T20:44:19.984Z,1.67
2023-08-29T20:46:49.360Z,1.40
2023-08-29T20:49:17.417Z,1.47
2023-08-29T20:51:45.529Z,1.23
2023-08-29T20:54:13.616Z,1.37
2023-08-29T20:56:41.758Z,1.33
2023-08-29T20:59:09.828Z,1.60
2023-08-29T21:01:37.892Z,1.40
2023-08-29T21:04:07.496Z,1.40
2023-08-29T21:06:37.263Z,1.43
2023-08-29T21:09:07.581Z,1.50
2023-08-29T21:11:35.627Z,1.60
2023-08-29T21:14:03.670Z,1.70
2023-08-29T21:16:32.205Z,1.40
2023-08-29T21:19:00.312Z,1.90
2023-08-29T21:21:29.724Z,1.60
2023-08-29T21:23:57.842Z,1.60
2023-08-29T21:26:25.960Z,1.80
2023-08-29T21:28:53.985Z,2.03
2023-08-29T21:31:22.027Z,1.50
2023-08-29T21:33:50.088Z,1.80
2023-08-29T21:36:18.145Z,1.60
2023-08-29T21:38:47.508Z,1.60
2023-08-29T21:41:16.530Z,1.40
2023-08-29T21:43:44.632Z,1.47
2023-08-29T21:46:12.733Z,1.53
2023-08-29T21:48:40.867Z,1.57
2023-08-29T21:51:13.239Z,1.63
2023-08-29T21:53:41.338Z,1.37
2023-08-29T21:56:12.005Z,1.30
2023-08-29T21:58:40.156Z,1.50
2023-08-29T22:01:12.726Z,1.37
2023-08-29T22:03:42.303Z,1.40
2023-08-29T22:06:10.414Z,1.37
2023-08-29T22:08:38.710Z,1.60
2023-08-29T22:11:06.880Z,1.30
2023-08-29T22:13:36.776Z,1.70
2023-08-29T22:16:05.454Z,1.70
2023-08-29T22:18:33.581Z,1.37
2023-08-29T22:21:03.845Z,1.53
2023-08-29T22:23:33.612Z,1.30
2023-08-29T22:26:07.776Z,1.50
2023-08-29T22:28:37.182Z,1.57
2023-08-29T22:31:05.466Z,1.50
2023-08-29T22:33:34.388Z,1.37
2023-08-29T22:36:02.577Z,1.40
2023-08-29T22:38:29.775Z,1.30
2023-08-29T22:41:13.085Z,1.60
2023-08-29T22:43:47.825Z,1.40
2023-08-29T22:46:16.305Z,1.80
2023-08-29T22:48:44.418Z,1.73
2023-08-29T22:51:12.479Z,1.70
2023-08-29T22:53:41.437Z,1.83
2023-08-29T22:56:09.708Z,1.77
2023-08-29T22:58:37.736Z,1.50
2023-08-29T23:01:10.812Z,1.50
2023-08-29T23:03:39.970Z,1.50
2023-08-29T23:06:08.106Z,1.60
2023-08-29T23:08:36.279Z,1.40
2023-08-29T23:11:05.240Z,1.40
2023-08-29T23:13:33.438Z,1.70
2023-08-29T23:16:05.124Z,1.40
2023-08-29T23:18:35.316Z,1.70
2023-08-29T23:21:04.702Z,1.60
2023-08-29T23:23:32.755Z,1.73
2023-08-29T23:26:00.788Z,1.50
2023-08-29T23:28:29.396Z,1.90
2023-08-29T23:30:57.485Z,1.50
2023-08-29T23:33:26.356Z,1.60
2023-08-29T23:35:56.740Z,1.20
2023-08-29T23:38:24.809Z,1.30
2023-08-29T23:40:52.855Z,1.40
2023-08-29T23:43:21.191Z,1.63
2023-08-29T23:45:50.836Z,1.37
2023-08-29T23:48:18.936Z,1.43
2023-08-29T23:50:47.003Z,1.57
2023-08-29T23:53:16.362Z,1.90
2023-08-29T23:55:44.461Z,1.73
2023-08-29T23:58:12.676Z,1.87
